Time;durP1;ratioP1;P1;durP2;ratioP2;P2;SDS_P1;SDS_P2;PMS_P1;PMS_P2;Temp;Humidity;BMP_temperature;BMP_pressure;BME280_temperature;BME280_humidity;BME280_pressure;Samples;Min_cycle;Max_cycle;Signal;HPM_P1;HPM_P2
2023/07/20 00:01:57;;;;;;;1.80;1.52;;;13.50;99.90;;;;;;4996374;28;20033;-77
2023/07/20 00:04:23;;;;;;;2.53;1.98;;;13.50;99.90;;;;;;5001182;28;20073;-77
2023/07/20 00:06:48;;;;;;;2.47;1.50;;;13.40;99.90;;;;;;4977176;28;20393;-77
2023/07/20 00:09:14;;;;;;;2.58;1.67;;;13.50;99.90;;;;;;4990275;28;20030;-76
2023/07/20 00:11:39;;;;;;;2.33;1.67;;;13.50;99.90;;;;;;4977846;28;20031;-77
2023/07/20 00:14:06;;;;;;;3.25;1.92;;;13.50;99.90;;;;;;4984585;28;20029;-77
2023/07/20 00:16:31;;;;;;;2.35;2.10;;;13.50;99.90;;;;;;4999465;28;20105;-77
2023/07/20 00:18:57;;;;;;;2.50;1.42;;;13.50;99.90;;;;;;5003097;28;20153;-77
2023/07/20 00:21:22;;;;;;;2.53;2.10;;;13.60;99.90;;;;;;5001275;28;20025;-77
2023/07/20 00:23:48;;;;;;;2.30;2.10;;;13.60;99.90;;;;;;4997606;28;20419;-77
2023/07/20 00:26:13;;;;;;;2.90;1.83;;;13.60;99.90;;;;;;5000283;28;20041;-77
2023/07/20 00:28:39;;;;;;;2.03;1.58;;;13.60;99.90;;;;;;5002046;28;20080;-77
2023/07/20 00:31:05;;;;;;;2.40;1.92;;;13.60;99.90;;;;;;5002010;28;20034;-77
2023/07/20 00:33:30;;;;;;;2.78;2.22;;;13.70;99.90;;;;;;5000616;28;20026;-77
2023/07/20 00:35:56;;;;;;;2.03;1.90;;;13.70;99.90;;;;;;5001920;28;20041;-77
2023/07/20 00:38:22;;;;;;;2.00;1.90;;;13.70;99.90;;;;;;5001639;28;20653;-77
2023/07/20 00:40:49;;;;;;;2.20;1.77;;;13.70;99.90;;;;;;4989540;28;20013;-77
2023/07/20 00:43:15;;;;;;;2.55;2.20;;;13.70;99.90;;;;;;5002389;28;20021;-77
2023/07/20 00:45:40;;;;;;;2.35;2.15;;;13.70;99.90;;;;;;5001533;28;20014;-77
2023/07/20 00:48:07;;;;;;;2.95;2.53;;;13.70;99.90;;;;;;4984437;28;20084;-77
2023/07/20 00:50:33;;;;;;;3.28;2.00;;;13.70;99.90;;;;;;4982646;28;20437;-77
2023/07/20 00:52:59;;;;;;;2.35;2.10;;;13.70;99.90;;;;;;5002242;28;20478;-77
2023/07/20 00:55:26;;;;;;;4.03;2.45;;;13.70;99.90;;;;;;4983221;28;20045;-77
2023/07/20 00:57:52;;;;;;;3.08;2.75;;;13.70;99.90;;;;;;4998319;28;20022;-77
2023/07/20 01:00:18;;;;;;;3.03;2.72;;;13.70;99.90;;;;;;4999675;28;20024;-77
2023/07/20 01:02:44;;;;;;;3.95;2.90;;;13.70;99.90;;;;;;4999009;28;20022;-77
2023/07/20 01:05:12;;;;;;;2.83;2.63;;;13.70;99.90;;;;;;4996192;28;20025;-77
2023/07/20 01:07:52;;;;;;;3.10;2.60;;;13.70;99.90;;;;;;4999454;28;20023;-77
2023/07/20 01:10:29;;;;;;;3.58;3.28;;;13.70;99.90;;;;;;5001853;28;20041;-77
2023/07/20 01:12:55;;;;;;;4.45;3.10;;;13.70;99.90;;;;;;5000870;28;20669;-77
2023/07/20 01:15:21;;;;;;;3.22;2.92;;;13.60;99.90;;;;;;4999686;28;21886;-77
2023/07/20 01:17:46;;;;;;;3.38;2.95;;;13.60;99.90;;;;;;4998708;28;20038;-77
2023/07/20 01:20:17;;;;;;;2.78;2.45;;;13.70;99.90;;;;;;5002948;28;20115;-77
2023/07/20 01:23:09;;;;;;;3.95;3.60;;;13.60;99.90;;;;;;4995353;28;20032;-78
2023/07/20 01:25:44;;;;;;;3.17;2.88;;;13.60;99.90;;;;;;4989104;28;20026;-78
2023/07/20 01:28:16;;;;;;;3.95;2.95;;;13.60;99.90;;;;;;4980848;28;20030;-77
2023/07/20 01:31:14;;;;;;;3.75;3.15;;;13.60;99.90;;;;;;4992857;28;20027;-77
2023/07/20 01:33:42;;;;;;;5.47;3.80;;;13.60;99.90;;;;;;4999583;28;20026;-77
2023/07/20 01:36:09;;;;;;;3.08;2.80;;;13.70;99.90;;;;;;5001720;28;20388;-77
2023/07/20 01:38:35;;;;;;;4.30;3.75;;;13.60;99.90;;;;;;4985918;28;20026;-77
2023/07/20 01:41:02;;;;;;;3.95;3.42;;;13.70;99.90;;;;;;5002025;28;20018;-77
2023/07/20 01:43:27;;;;;;;4.65;3.38;;;13.70;99.90;;;;;;4984001;28;20096;-77
2023/07/20 01:45:53;;;;;;;3.90;3.50;;;13.70;99.90;;;;;;4983717;28;20115;-77
2023/07/20 01:48:18;;;;;;;4.47;3.45;;;13.70;99.90;;;;;;4985008;28;20253;-77
2023/07/20 01:50:44;;;;;;;3.75;3.45;;;13.70;99.90;;;;;;5001545;28;20596;-77
2023/07/20 01:53:10;;;;;;;3.63;3.33;;;13.70;99.90;;;;;;4983926;28;20036;-77
2023/07/20 01:55:35;;;;;;;4.10;3.70;;;13.70;99.90;;;;;;4981555;28;20030;-76
2023/07/20 01:58:01;;;;;;;4.53;3.97;;;13.70;99.90;;;;;;5001189;28;20022;-75
2023/07/20 02:00:27;;;;;;;5.00;3.92;;;13.70;99.90;;;;;;4998628;28;20041;-77
2023/07/20 02:02:53;;;;;;;4.10;3.70;;;13.70;99.90;;;;;;5001502;28;20022;-77
2023/07/20 02:05:18;;;;;;;3.50;3.20;;;13.70;99.90;;;;;;5001715;28;20425;-77
2023/07/20 02:07:44;;;;;;;6.35;4.68;;;13.70;99.90;;;;;;4982192;28;20570;-76
2023/07/20 02:10:10;;;;;;;3.92;3.53;;;13.70;99.90;;;;;;5002031;28;20620;-77
2023/07/20 02:12:35;;;;;;;6.95;4.90;;;13.60;99.90;;;;;;4999967;28;20041;-77
2023/07/20 02:15:02;;;;;;;5.22;3.95;;;13.60;99.90;;;;;;4983467;28;20098;-77
2023/07/20 02:17:28;;;;;;;4.82;4.38;;;13.60;99.90;;;;;;5000570;28;20038;-77
2023/07/20 02:19:54;;;;;;;3.70;3.40;;;13.60;99.90;;;;;;5000050;28;20036;-77
2023/07/20 02:22:20;;;;;;;5.97;4.38;;;13.60;99.90;;;;;;4983976;28;20026;-77
2023/07/20 02:24:46;;;;;;;4.60;4.10;;;13.60;99.90;;;;;;4983440;28;20106;-77
2023/07/20 02:27:12;;;;;;;5.18;4.65;;;13.60;99.90;;;;;;5001222;28;20097;-77
2023/07/20 02:29:37;;;;;;;5.15;4.25;;;13.60;99.90;;;;;;5002101;28;20026;-77
2023/07/20 02:32:03;;;;;;;5.22;3.97;;;13.70;99.90;;;;;;5003245;28;20130;-77
2023/07/20 02:34:29;;;;;;;4.53;4.13;;;13.60;99.90;;;;;;5003096;28;20132;-77
2023/07/20 02:36:58;;;;;;;5.72;5.13;;;13.60;99.90;;;;;;4980328;28;20093;-76
2023/07/20 02:39:24;;;;;;;6.30;4.43;;;13.60;99.90;;;;;;5002554;28;20018;-77
2023/07/20 02:41:50;;;;;;;6.22;5.53;;;13.60;99.90;;;;;;4989303;28;20041;-77
2023/07/20 02:44:15;;;;;;;6.57;5.15;;;13.60;99.90;;;;;;4996796;28;20388;-77
2023/07/20 02:46:41;;;;;;;5.82;5.05;;;13.70;99.90;;;;;;5000865;28;20508;-77
2023/07/20 02:49:07;;;;;;;5.30;4.80;;;13.70;99.90;;;;;;5003008;28;20060;-77
2023/07/20 02:51:32;;;;;;;8.75;6.50;;;13.70;99.90;;;;;;5003142;28;20026;-77
2023/07/20 02:53:58;;;;;;;7.22;6.00;;;13.70;99.90;;;;;;5003911;28;20409;-77
2023/07/20 02:56:24;;;;;;;6.40;5.40;;;13.60;99.90;;;;;;5008961;28;20389;-77
2023/07/20 02:58:52;;;;;;;8.50;6.13;;;13.70;99.90;;;;;;5003895;28;20018;-78
2023/07/20 03:01:17;;;;;;;7.05;5.60;;;13.60;99.90;;;;;;5003724;28;20062;-77
2023/07/20 03:03:46;;;;;;;7.80;5.28;;;13.70;99.90;;;;;;5000989;28;20041;-77
2023/07/20 03:06:15;;;;;;;6.18;5.15;;;13.60;99.90;;;;;;5005370;28;20030;-77
2023/07/20 03:08:41;;;;;;;6.18;5.60;;;13.60;99.90;;;;;;4997433;28;20371;-78
2023/07/20 03:11:07;;;;;;;6.10;5.50;;;13.60;99.90;;;;;;5000849;28;20030;-78
2023/07/20 03:13:33;;;;;;;7.75;5.68;;;13.60;99.90;;;;;;5002974;28;20696;-77
2023/07/20 03:15:58;;;;;;;7.65;6.45;;;13.60;99.90;;;;;;5000883;28;20092;-77
2023/07/20 03:18:24;;;;;;;7.40;6.70;;;13.70;99.90;;;;;;5005271;28;20080;-77
2023/07/20 03:20:49;;;;;;;7.28;6.10;;;13.70;99.90;;;;;;5000839;28;20772;-77
2023/07/20 03:23:16;;;;;;;7.20;6.50;;;13.70;99.90;;;;;;5005473;28;20101;-77
2023/07/20 03:25:41;;;;;;;8.10;7.30;;;13.60;99.90;;;;;;4993267;28;20121;-77
2023/07/20 03:28:07;;;;;;;6.90;6.20;;;13.70;99.90;;;;;;4983789;28;20517;-77
2023/07/20 03:30:33;;;;;;;8.23;6.50;;;13.70;99.90;;;;;;4982787;28;20053;-77
2023/07/20 03:32:58;;;;;;;6.80;5.78;;;13.60;99.90;;;;;;4991664;28;20080;-77
2023/07/20 03:35:24;;;;;;;6.20;5.60;;;13.60;99.90;;;;;;4975630;28;20033;-77
2023/07/20 03:37:49;;;;;;;7.22;5.93;;;13.70;99.90;;;;;;5007482;28;20482;-78
2023/07/20 03:40:16;;;;;;;7.10;6.40;;;13.70;99.90;;;;;;5000376;28;20084;-77
2023/07/20 03:42:41;;;;;;;6.75;6.15;;;13.70;99.90;;;;;;4992131;28;20026;-78
2023/07/20 03:45:08;;;;;;;7.35;6.57;;;13.70;99.90;;;;;;4983211;28;20494;-78
2023/07/20 03:47:33;;;;;;;5.88;5.15;;;13.70;99.90;;;;;;4976483;28;20505;-78
2023/07/20 03:49:59;;;;;;;6.75;6.13;;;13.60;99.90;;;;;;5006165;28;20030;-78
2023/07/20 03:52:24;;;;;;;7.82;5.82;;;13.70;99.90;;;;;;4974595;28;20023;-78
2023/07/20 03:54:51;;;;;;;6.43;5.70;;;13.70;99.90;;;;;;5004315;28;20017;-78
2023/07/20 03:57:17;;;;;;;6.57;5.70;;;13.70;99.90;;;;;;5010767;28;20062;-78
2023/07/20 03:59:46;;;;;;;8.65;5.95;;;13.70;99.90;;;;;;4991187;28;20018;-79
2023/07/20 04:02:12;;;;;;;6.18;5.57;;;13.70;99.90;;;;;;4979719;28;20018;-79
2023/07/20 04:04:37;;;;;;;7.18;5.93;;;13.70;99.90;;;;;;4996990;28;20096;-78
2023/07/20 04:07:04;;;;;;;5.22;4.68;;;13.70;99.90;;;;;;4983527;28;20483;-78
2023/07/20 04:09:31;;;;;;;5.45;4.93;;;13.60;99.90;;;;;;4980986;28;20057;-79
2023/07/20 04:11:57;;;;;;;5.53;5.03;;;13.60;99.90;;;;;;4988829;28;20038;-78
2023/07/20 04:14:23;;;;;;;6.35;5.22;;;13.70;99.90;;;;;;4996684;28;20078;-78
2023/07/20 04:16:51;;;;;;;5.32;4.72;;;13.70;99.90;;;;;;5005565;28;20045;-78
2023/07/20 04:19:17;;;;;;;5.60;5.10;;;13.70;99.90;;;;;;5004289;28;20018;-78
2023/07/20 04:21:43;;;;;;;5.45;4.85;;;13.70;99.90;;;;;;4986625;28;20367;-78
2023/07/20 04:24:09;;;;;;;5.72;5.22;;;13.70;99.90;;;;;;4988775;28;20386;-78
2023/07/20 04:26:35;;;;;;;5.40;4.90;;;13.70;99.90;;;;;;4985216;28;20026;-78
2023/07/20 04:29:01;;;;;;;5.07;4.63;;;13.70;99.90;;;;;;5005301;28;20022;-79
2023/07/20 04:31:26;;;;;;;5.55;4.90;;;13.70;99.90;;;;;;4996774;28;20040;-78
2023/07/20 04:33:52;;;;;;;5.30;4.90;;;13.70;99.90;;;;;;4983060;28;20022;-78
2023/07/20 04:36:19;;;;;;;6.50;5.60;;;13.80;99.90;;;;;;4986118;28;20461;-78
2023/07/20 04:38:45;;;;;;;6.00;5.40;;;13.80;99.90;;;;;;4990582;28;20061;-79
2023/07/20 04:41:14;;;;;;;6.07;5.50;;;13.80;99.90;;;;;;4987944;28;20076;-78
2023/07/20 04:43:44;;;;;;;5.45;4.90;;;13.80;99.90;;;;;;5005110;28;20085;-78
2023/07/20 04:46:12;;;;;;;5.80;5.20;;;13.80;99.90;;;;;;5001387;28;20392;-78
2023/07/20 04:48:38;;;;;;;4.57;4.03;;;13.80;99.90;;;;;;4999521;28;20082;-78
2023/07/20 04:51:04;;;;;;;4.63;3.80;;;13.80;99.90;;;;;;4995610;28;20456;-78
2023/07/20 04:53:30;;;;;;;5.45;3.97;;;13.80;99.90;;;;;;5006893;28;20122;-79
2023/07/20 04:55:56;;;;;;;4.70;4.22;;;13.90;99.90;;;;;;4990802;28;20041;-79
2023/07/20 04:58:22;;;;;;;5.53;4.07;;;13.90;99.90;;;;;;5009675;28;20034;-78
2023/07/20 05:00:52;;;;;;;4.82;3.42;;;13.90;99.90;;;;;;5009501;28;20054;-79
2023/07/20 05:03:18;;;;;;;3.88;3.47;;;13.90;99.90;;;;;;4992033;28;20030;-78
2023/07/20 05:05:43;;;;;;;3.83;3.42;;;13.90;99.90;;;;;;5005554;28;20078;-77
2023/07/20 05:08:09;;;;;;;3.63;2.80;;;13.90;99.90;;;;;;5004850;28;20444;-78
2023/07/20 05:10:35;;;;;;;4.18;3.63;;;14.00;99.90;;;;;;5006575;28;20258;-78
2023/07/20 05:13:00;;;;;;;3.53;2.85;;;14.00;99.90;;;;;;5011695;28;20702;-78
2023/07/20 05:15:26;;;;;;;3.50;3.20;;;14.10;99.90;;;;;;5008659;28;20033;-78
2023/07/20 05:17:51;;;;;;;3.35;2.70;;;14.20;99.90;;;;;;4985891;28;20500;-78
2023/07/20 05:20:17;;;;;;;3.75;3.28;;;14.10;99.90;;;;;;5009319;28;20029;-78
2023/07/20 05:22:43;;;;;;;5.60;4.97;;;14.20;99.90;;;;;;5001276;28;20076;-78
2023/07/20 05:25:10;;;;;;;3.03;2.83;;;14.20;99.90;;;;;;5005944;28;20026;-78
2023/07/20 05:27:39;;;;;;;3.95;3.30;;;14.20;99.90;;;;;;5003881;28;20029;-78
2023/07/20 05:30:07;;;;;;;3.13;2.83;;;14.20;99.90;;;;;;4987183;28;20033;-78
2023/07/20 05:32:33;;;;;;;3.58;2.60;;;14.20;99.90;;;;;;5009684;28;20600;-77
2023/07/20 05:34:58;;;;;;;3.85;2.75;;;14.30;99.90;;;;;;4988823;28;20096;-77
2023/07/20 05:37:24;;;;;;;3.00;2.70;;;14.30;99.90;;;;;;5008712;28;20048;-76
2023/07/20 05:39:50;;;;;;;4.28;2.40;;;14.30;99.90;;;;;;4984385;28;20134;-77
2023/07/20 05:42:15;;;;;;;2.80;2.20;;;14.30;99.90;;;;;;5011640;28;20021;-77
2023/07/20 05:44:41;;;;;;;3.60;2.15;;;14.40;99.90;;;;;;4986203;28;20501;-77
2023/07/20 05:47:07;;;;;;;2.38;2.17;;;14.50;99.90;;;;;;5001856;28;20660;-76
2023/07/20 05:49:34;;;;;;;2.78;2.40;;;14.50;99.90;;;;;;5008603;28;20030;-77
2023/07/20 05:52:00;;;;;;;3.60;2.20;;;14.60;99.90;;;;;;5000498;28;20114;-77
2023/07/20 05:54:26;;;;;;;2.65;2.42;;;14.70;99.90;;;;;;4987700;28;20568;-77
2023/07/20 05:56:52;;;;;;;1.60;1.50;;;14.70;99.90;;;;;;4979407;28;20037;-77
2023/07/20 05:59:19;;;;;;;3.35;2.00;;;14.70;99.90;;;;;;5005355;28;20069;-77
2023/07/20 06:01:45;;;;;;;4.07;2.00;;;14.80;99.90;;;;;;4982108;28;20034;-78
2023/07/20 06:04:11;;;;;;;1.90;1.67;;;15.00;99.90;;;;;;5001048;28;20073;-77
2023/07/20 06:06:36;;;;;;;2.40;1.70;;;15.00;99.90;;;;;;5008692;28;20033;-77
2023/07/20 06:09:07;;;;;;;1.23;1.13;;;15.10;99.90;;;;;;4998993;28;20496;-77
2023/07/20 06:11:33;;;;;;;4.20;1.50;;;15.20;99.90;;;;;;5006729;28;20428;-77
2023/07/20 06:13:59;;;;;;;1.50;1.40;;;15.30;99.90;;;;;;4991407;28;20184;-77
2023/07/20 06:16:24;;;;;;;3.03;1.77;;;15.40;99.90;;;;;;4985396;28;20490;-77
2023/07/20 06:18:50;;;;;;;5.88;1.60;;;15.50;99.90;;;;;;4989695;28;20027;-77
2023/07/20 06:21:15;;;;;;;1.27;1.00;;;15.60;99.90;;;;;;4981881;28;20023;-77
2023/07/20 06:23:41;;;;;;;2.88;1.63;;;15.70;99.90;;;;;;4990560;28;20018;-77
2023/07/20 06:26:07;;;;;;;3.25;1.35;;;15.80;99.90;;;;;;5003286;28;20023;-76
2023/07/20 06:28:33;;;;;;;2.15;1.20;;;15.90;99.90;;;;;;5003818;28;20101;-78
2023/07/20 06:31:02;;;;;;;1.27;1.25;;;16.00;99.90;;;;;;4979091;28;20030;-77
2023/07/20 06:33:28;;;;;;;1.67;1.27;;;16.10;99.90;;;;;;4999210;28;20050;-76
2023/07/20 06:35:53;;;;;;;1.40;1.27;;;16.20;99.90;;;;;;4988004;28;20481;-76
2023/07/20 06:38:19;;;;;;;10.55;6.45;;;16.20;99.90;;;;;;5005599;28;20030;-77
2023/07/20 06:40:48;;;;;;;1.35;1.25;;;16.30;99.90;;;;;;5004926;28;20104;-77
2023/07/20 06:43:13;;;;;;;2.17;1.10;;;16.30;99.90;;;;;;5007107;28;20019;-77
2023/07/20 06:45:39;;;;;;;0.88;0.85;;;16.40;99.90;;;;;;4997667;28;20500;-76
2023/07/20 06:48:04;;;;;;;1.80;1.30;;;16.40;99.90;;;;;;5005237;28;20061;-77
2023/07/20 06:50:30;;;;;;;5.07;1.25;;;16.50;99.90;;;;;;5003400;28;20102;-77
2023/07/20 06:52:56;;;;;;;1.30;1.08;;;16.50;99.90;;;;;;5004709;28;20030;-77
2023/07/20 06:55:21;;;;;;;1.08;1.00;;;16.70;99.90;;;;;;5004064;28;20030;-77
2023/07/20 06:57:47;;;;;;;3.45;1.25;;;16.80;99.90;;;;;;4987385;28;20108;-77
2023/07/20 07:00:13;;;;;;;1.58;0.85;;;16.90;99.90;;;;;;4989613;28;20030;-77
2023/07/20 07:02:38;;;;;;;1.38;0.75;;;17.00;99.90;;;;;;4984423;28;20038;-77
2023/07/20 07:05:05;;;;;;;1.50;0.70;;;17.10;99.90;;;;;;5005837;28;20025;-76
2023/07/20 07:07:30;;;;;;;0.90;0.85;;;17.30;99.90;;;;;;4984361;28;20033;-77
2023/07/20 07:09:56;;;;;;;3.63;1.10;;;17.50;99.90;;;;;;4987518;28;20026;-79
2023/07/20 07:12:21;;;;;;;1.48;0.77;;;17.60;99.90;;;;;;4987302;28;20022;-76
2023/07/20 07:14:47;;;;;;;4.55;1.75;;;17.70;99.90;;;;;;4991793;28;20376;-77
2023/07/20 07:17:12;;;;;;;1.90;1.10;;;17.80;99.90;;;;;;5004558;28;20820;-77
2023/07/20 07:19:38;;;;;;;3.13;1.52;;;17.90;99.90;;;;;;4987545;28;20019;-78
2023/07/20 07:22:04;;;;;;;1.85;1.20;;;18.10;99.90;;;;;;4985803;28;20402;-76
2023/07/20 07:24:33;;;;;;;2.03;1.23;;;18.20;99.90;;;;;;5000977;28;20029;-78
2023/07/20 07:26:59;;;;;;;1.08;0.88;;;18.40;99.90;;;;;;5003379;28;20029;-77
2023/07/20 07:29:25;;;;;;;4.20;1.20;;;18.30;99.90;;;;;;4995227;28;20030;-77
2023/07/20 07:31:51;;;;;;;4.43;1.30;;;18.00;99.90;;;;;;4985083;28;20030;-78
2023/07/20 07:34:16;;;;;;;1.85;1.13;;;17.80;99.90;;;;;;5004409;28;20044;-78
2023/07/20 07:36:42;;;;;;;3.95;1.63;;;17.40;99.90;;;;;;5005852;28;20389;-78
2023/07/20 07:39:09;;;;;;;1.35;1.13;;;17.10;99.90;;;;;;5001882;28;20172;-79
2023/07/20 07:41:35;;;;;;;3.00;1.42;;;16.80;99.90;;;;;;4988947;28;20026;-78
2023/07/20 07:44:00;;;;;;;2.42;1.10;;;16.50;99.90;;;;;;5003587;28;20369;-78
2023/07/20 07:46:26;;;;;;;2.67;1.13;;;16.50;99.90;;;;;;4989987;28;20022;-76
2023/07/20 07:48:51;;;;;;;3.92;1.77;;;16.60;99.90;;;;;;4987842;28;20064;-79
2023/07/20 07:51:17;;;;;;;3.22;1.17;;;16.80;99.90;;;;;;5003076;28;20026;-78
2023/07/20 07:53:43;;;;;;;2.63;1.42;;;16.90;99.90;;;;;;5005139;28;20032;-78
2023/07/20 07:56:09;;;;;;;4.65;1.65;;;17.10;99.90;;;;;;5004147;28;20440;-77
2023/07/20 07:58:35;;;;;;;4.00;1.13;;;17.30;99.90;;;;;;5004782;28;20022;-78
2023/07/20 08:01:00;;;;;;;4.25;1.52;;;17.50;99.90;;;;;;4986430;28;20022;-77
2023/07/20 08:03:26;;;;;;;2.53;1.55;;;17.60;99.90;;;;;;5001773;28;20628;-78
2023/07/20 08:05:58;;;;;;;4.25;2.17;;;17.70;99.90;;;;;;5001431;28;20022;-77
2023/07/20 08:08:24;;;;;;;2.75;1.90;;;17.90;99.90;;;;;;4984479;28;20025;-78
2023/07/20 08:10:52;;;;;;;3.65;1.95;;;18.10;99.90;;;;;;5002615;28;20706;-77
2023/07/20 08:13:18;;;;;;;4.15;1.80;;;18.10;99.90;;;;;;4985139;28;20495;-76
2023/07/20 08:15:48;;;;;;;6.82;2.30;;;18.30;99.90;;;;;;4999110;28;20062;-76
2023/07/20 08:18:14;;;;;;;4.38;1.52;;;18.40;99.90;;;;;;4985645;28;20022;-77
2023/07/20 08:20:43;;;;;;;5.47;2.30;;;18.70;99.90;;;;;;5000432;28;20333;-76
2023/07/20 08:23:09;;;;;;;2.08;1.63;;;18.80;99.90;;;;;;5000358;28;20022;-77
2023/07/20 08:25:39;;;;;;;1.95;1.50;;;18.50;99.90;;;;;;4999164;28;20049;-78
2023/07/20 08:28:04;;;;;;;3.90;1.70;;;18.60;99.90;;;;;;4980726;28;20037;-77
2023/07/20 08:30:40;;;;;;;4.85;1.17;;;18.70;99.90;;;;;;5000196;28;20034;-77
2023/07/20 08:33:06;;;;;;;3.30;1.20;;;18.70;99.90;;;;;;5003656;28;20384;-77
2023/07/20 08:35:31;;;;;;;2.03;1.00;;;18.90;99.90;;;;;;4992489;28;20031;-77
2023/07/20 08:37:57;;;;;;;6.20;1.88;;;19.00;99.90;;;;;;5005555;28;20030;-75
2023/07/20 08:40:22;;;;;;;4.03;1.75;;;19.00;99.90;;;;;;4998648;28;20032;-77
2023/07/20 08:42:48;;;;;;;1.75;1.30;;;19.10;99.90;;;;;;4988682;28;20029;-77
2023/07/20 08:45:17;;;;;;;4.80;1.65;;;19.40;99.90;;;;;;5001884;28;20018;-77
2023/07/20 08:47:45;;;;;;;5.03;1.20;;;19.50;99.90;;;;;;4989621;28;20117;-77
2023/07/20 08:50:12;;;;;;;3.25;1.45;;;19.60;99.90;;;;;;4984749;28;20034;-77
2023/07/20 08:52:38;;;;;;;3.72;1.13;;;19.70;99.90;;;;;;5000794;28;20030;-77
2023/07/20 08:55:05;;;;;;;1.15;0.77;;;19.70;99.90;;;;;;4987558;28;20052;-78
2023/07/20 08:57:33;;;;;;;3.15;1.15;;;19.60;99.90;;;;;;4977635;28;20401;-76
2023/07/20 09:00:04;;;;;;;2.72;0.77;;;19.70;99.90;;;;;;5006828;28;20094;-77
2023/07/20 09:02:34;;;;;;;3.45;0.77;;;19.80;99.90;;;;;;4977300;28;20192;-78
2023/07/20 09:05:00;;;;;;;1.65;1.00;;;20.00;99.90;;;;;;5002244;28;20033;-78
2023/07/20 09:07:26;;;;;;;3.65;1.10;;;20.10;99.90;;;;;;4983767;28;20381;-77
2023/07/20 09:09:51;;;;;;;3.03;0.60;;;20.20;99.90;;;;;;4985413;28;20021;-77
2023/07/20 09:12:17;;;;;;;7.05;1.45;;;20.00;99.90;;;;;;5001264;28;20528;-76
2023/07/20 09:14:44;;;;;;;1.10;0.65;;;19.60;99.90;;;;;;5001961;28;20018;-75
2023/07/20 09:17:14;;;;;;;1.38;0.95;;;19.20;99.90;;;;;;5003251;28;20030;-77
2023/07/20 09:19:45;;;;;;;1.25;0.75;;;18.80;99.90;;;;;;4986621;28;20475;-77
2023/07/20 09:22:11;;;;;;;2.28;0.98;;;18.50;99.90;;;;;;4998229;28;20030;-76
2023/07/20 09:24:37;;;;;;;3.42;1.05;;;18.40;99.90;;;;;;5000146;28;20029;-77
2023/07/20 09:27:05;;;;;;;3.05;0.90;;;18.40;99.90;;;;;;5003168;28;20030;-78
2023/07/20 09:29:31;;;;;;;2.45;1.15;;;18.30;99.90;;;;;;4983439;28;20080;-77
2023/07/20 09:32:03;;;;;;;1.48;0.63;;;18.30;99.90;;;;;;4985022;28;20101;-76
2023/07/20 09:34:32;;;;;;;5.72;1.30;;;18.50;99.90;;;;;;5001913;28;20104;-78
2023/07/20 09:37:00;;;;;;;3.38;1.08;;;18.60;99.90;;;;;;4986679;28;20029;-77
2023/07/20 09:39:26;;;;;;;3.40;0.90;;;18.70;99.90;;;;;;4986731;28;20022;-77
2023/07/20 09:41:52;;;;;;;3.33;0.80;;;18.90;99.90;;;;;;4989077;28;20025;-76
2023/07/20 09:44:18;;;;;;;4.47;0.90;;;18.90;99.90;;;;;;5004168;28;20341;-77
2023/07/20 09:46:53;;;;;;;1.13;0.57;;;18.90;99.90;;;;;;4997609;28;20029;-78
2023/07/20 09:49:18;;;;;;;0.97;0.40;;;18.90;99.90;;;;;;5010785;28;20044;-78
2023/07/20 09:51:45;;;;;;;0.88;0.43;;;18.90;99.90;;;;;;5000278;28;20034;-78
2023/07/20 09:54:12;;;;;;;2.05;0.63;;;19.00;99.90;;;;;;5009294;28;20030;-77
2023/07/20 09:56:39;;;;;;;2.15;0.55;;;19.10;99.90;;;;;;5005501;28;20072;-78
2023/07/20 09:59:05;;;;;;;1.90;0.50;;;19.00;99.90;;;;;;4992232;28;20018;-77
2023/07/20 10:01:34;;;;;;;2.20;0.50;;;19.10;99.90;;;;;;4988843;28;20022;-77
2023/07/20 10:04:04;;;;;;;0.88;0.60;;;19.30;99.90;;;;;;4985406;28;20041;-78
2023/07/20 10:06:32;;;;;;;3.15;0.90;;;19.50;99.90;;;;;;5010673;28;20381;-76
2023/07/20 10:09:03;;;;;;;3.55;0.88;;;19.50;99.90;;;;;;5004635;28;20045;-78
2023/07/20 10:11:36;;;;;;;2.35;0.82;;;19.30;99.90;;;;;;4996513;28;20451;-81
2023/07/20 10:14:06;;;;;;;3.25;0.70;;;18.80;99.90;;;;;;4984244;28;21499;-77
2023/07/20 10:16:36;;;;;;;1.10;0.28;;;18.30;99.90;;;;;;5008174;28;20528;-76
2023/07/20 10:19:15;;;;;;;0.82;0.40;;;18.10;99.90;;;;;;4983272;28;20061;-77
2023/07/20 10:21:47;;;;;;;1.17;0.20;;;17.90;99.90;;;;;;5001581;28;20165;-76
2023/07/20 10:24:14;;;;;;;1.13;0.75;;;17.80;99.90;;;;;;5004554;28;20019;-77
2023/07/20 10:26:40;;;;;;;1.63;0.55;;;17.80;99.90;;;;;;4986871;28;20027;-77
2023/07/20 10:29:06;;;;;;;1.38;0.80;;;17.80;99.90;;;;;;5004871;28;20041;-77
2023/07/20 10:31:33;;;;;;;1.38;0.85;;;17.90;99.90;;;;;;5001364;28;20145;-76
2023/07/20 10:33:59;;;;;;;3.83;1.25;;;18.00;99.90;;;;;;5000590;28;20024;-77
2023/07/20 10:36:28;;;;;;;1.98;1.00;;;17.90;99.90;;;;;;5004132;28;20026;-76
2023/07/20 10:38:55;;;;;;;3.55;1.00;;;17.90;99.90;;;;;;5005546;28;20018;-77
2023/07/20 10:41:24;;;;;;;2.80;0.50;;;18.00;99.90;;;;;;5005853;28;20018;-76
2023/07/20 10:43:50;;;;;;;2.17;0.57;;;18.00;99.90;;;;;;5004768;28;20022;-76
2023/07/20 10:46:34;;;;;;;3.50;0.55;;;18.10;99.90;;;;;;5006139;28;20045;-76
2023/07/20 10:49:06;;;;;;;1.52;0.70;;;18.20;99.90;;;;;;5003864;28;20396;-76
2023/07/20 10:51:43;;;;;;;1.48;0.60;;;18.30;99.90;;;;;;5004251;28;20060;-78
2023/07/20 10:54:29;;;;;;;0.90;0.40;;;18.40;99.90;;;;;;5001029;28;20030;-77
2023/07/20 10:57:18;;;;;;;3.20;0.67;;;18.40;99.90;;;;;;4984442;28;20034;-76
2023/07/20 10:59:47;;;;;;;1.23;0.40;;;18.40;99.90;;;;;;4992418;28;20041;-77
2023/07/20 11:02:12;;;;;;;0.43;0.30;;;18.20;99.90;;;;;;4984053;28;20145;-76
2023/07/20 11:04:39;;;;;;;2.38;0.60;;;18.20;99.90;;;;;;5002190;28;20497;-76
2023/07/20 11:07:06;;;;;;;1.60;0.35;;;18.20;99.90;;;;;;4989492;28;20097;-77
2023/07/20 11:09:37;;;;;;;1.58;0.60;;;18.30;99.90;;;;;;4984390;28;20066;-76
2023/07/20 11:12:11;;;;;;;0.85;0.50;;;18.60;99.90;;;;;;4989622;28;20129;-77
2023/07/20 11:14:41;;;;;;;4.95;0.85;;;18.60;99.90;;;;;;4987753;28;20110;-76
2023/07/20 11:17:14;;;;;;;1.90;0.60;;;18.50;99.90;;;;;;5005034;28;20021;-77
2023/07/20 11:19:41;;;;;;;2.22;0.60;;;18.30;99.90;;;;;;4988598;28;20034;-77
2023/07/20 11:22:09;;;;;;;1.15;0.45;;;18.30;99.90;;;;;;5003643;28;20026;-77
2023/07/20 11:24:42;;;;;;;3.03;0.65;;;18.50;99.90;;;;;;4984130;28;20014;-78
2023/07/20 11:27:07;;;;;;;4.70;0.85;;;18.60;99.90;;;;;;5004159;28;20025;-77
2023/07/20 11:29:34;;;;;;;2.13;0.90;;;18.60;99.90;;;;;;4989032;28;20026;-77
2023/07/20 11:32:04;;;;;;;1.85;0.85;;;18.50;99.90;;;;;;4989607;28;20033;-78
2023/07/20 11:34:31;;;;;;;3.05;0.70;;;18.20;99.90;;;;;;4987839;28;20031;-78
2023/07/20 11:36:57;;;;;;;2.88;1.02;;;18.00;99.90;;;;;;4989600;28;20018;-78
2023/07/20 11:39:25;;;;;;;6.10;1.25;;;17.80;99.90;;;;;;5007849;28;20346;-77
2023/07/20 11:41:53;;;;;;;2.05;0.80;;;17.40;99.90;;;;;;4978335;28;20029;-77
2023/07/20 11:44:29;;;;;;;3.85;0.90;;;17.10;99.90;;;;;;4990439;28;20169;-81
2023/07/20 11:47:08;;;;;;;4.07;0.90;;;16.70;99.90;;;;;;4986465;28;20469;-80
2023/07/20 11:49:38;;;;;;;4.80;1.05;;;16.30;99.90;;;;;;4993264;28;20032;-78
2023/07/20 11:52:06;;;;;;;3.50;1.33;;;16.20;99.90;;;;;;5004109;28;20018;-79
2023/07/20 11:54:33;;;;;;;4.68;1.33;;;16.20;99.90;;;;;;4993240;28;20022;-77
2023/07/20 11:57:01;;;;;;;2.72;0.90;;;16.10;99.90;;;;;;4984682;28;20537;-79
2023/07/20 11:59:26;;;;;;;2.72;1.13;;;16.10;99.90;;;;;;4986113;28;20019;-83
2023/07/20 12:01:52;;;;;;;5.97;1.33;;;16.00;99.90;;;;;;5008265;28;20031;-79
2023/07/20 12:04:19;;;;;;;3.28;0.98;;;16.00;99.90;;;;;;5003336;28;20621;-81
2023/07/20 12:06:45;;;;;;;1.08;0.85;;;16.00;99.90;;;;;;4993460;28;20197;-81
2023/07/20 12:09:15;;;;;;;4.97;1.45;;;16.10;99.90;;;;;;5004310;28;20046;-80
2023/07/20 12:11:43;;;;;;;5.07;1.20;;;16.30;99.90;;;;;;4995226;28;20095;-79
2023/07/20 12:14:09;;;;;;;5.38;1.33;;;16.40;99.90;;;;;;4988737;28;20026;-80
2023/07/20 12:16:36;;;;;;;4.70;1.20;;;16.50;99.90;;;;;;4987034;28;20164;-80
2023/07/20 12:19:11;;;;;;;6.13;1.38;;;16.60;99.90;;;;;;5005044;28;20023;-80
2023/07/20 12:21:39;;;;;;;2.03;1.40;;;16.70;99.90;;;;;;5002189;28;20096;-79
2023/07/20 12:24:06;;;;;;;3.88;1.08;;;16.80;99.90;;;;;;5008083;28;20022;-79
2023/07/20 12:26:33;;;;;;;4.55;1.60;;;17.00;99.90;;;;;;5002401;28;20146;-78
2023/07/20 12:28:59;;;;;;;3.72;1.40;;;17.00;99.90;;;;;;5008223;28;20084;-80
2023/07/20 12:31:26;;;;;;;4.13;1.00;;;17.00;99.90;;;;;;4983113;28;20105;-78
2023/07/20 12:33:52;;;;;;;1.00;0.90;;;17.00;99.90;;;;;;4987644;28;20025;-78
2023/07/20 12:36:18;;;;;;;3.35;1.08;;;17.10;99.90;;;;;;4988055;28;20026;-77
2023/07/20 12:38:44;;;;;;;3.22;1.10;;;17.10;99.90;;;;;;4988968;28;20351;-78
2023/07/20 12:41:14;;;;;;;4.03;1.27;;;17.20;99.90;;;;;;4982405;28;20035;-78
2023/07/20 12:43:44;;;;;;;3.08;1.00;;;17.30;99.90;;;;;;5005427;28;20019;-79
2023/07/20 12:46:14;;;;;;;3.38;1.02;;;17.30;99.90;;;;;;4987667;28;20103;-79
2023/07/20 12:48:41;;;;;;;2.28;0.88;;;17.40;99.90;;;;;;4985893;28;20023;-78